createdAt,value
2022-11-06T00:00:15.172Z,8.95
2022-11-06T00:01:15.150Z,8.99
2022-11-06T00:02:20.514Z,8.94
2022-11-06T00:03:15.160Z,8.94
2022-11-06T00:04:15.262Z,8.79
2022-11-06T00:05:15.105Z,8.89
2022-11-06T00:06:15.112Z,8.81
2022-11-06T00:07:15.074Z,8.94
2022-11-06T00:08:15.424Z,8.79
2022-11-06T00:09:15.064Z,8.78
2022-11-06T00:10:15.051Z,8.84
2022-11-06T00:11:15.031Z,8.85
2022-11-06T00:12:15.020Z,8.85
2022-11-06T00:13:15.053Z,8.79
2022-11-06T00:14:15.011Z,8.85
2022-11-06T00:15:15.035Z,8.67
2022-11-06T00:16:14.977Z,8.71
2022-11-06T00:17:14.961Z,8.61
2022-11-06T00:18:15.427Z,8.63
2022-11-06T00:19:14.935Z,8.60
2022-11-06T00:20:14.932Z,8.58
2022-11-06T00:21:14.940Z,8.53
2022-11-06T00:22:14.918Z,8.53
2022-11-06T00:23:14.898Z,8.53
2022-11-06T00:24:14.903Z,8.53
2022-11-06T00:25:14.870Z,8.49
2022-11-06T00:26:14.880Z,8.44
2022-11-06T00:27:14.853Z,8.41
2022-11-06T00:28:15.220Z,8.44
2022-11-06T00:29:14.852Z,8.44
2022-11-06T00:30:14.817Z,8.42
2022-11-06T00:31:14.804Z,8.41
2022-11-06T00:32:14.822Z,8.38
2022-11-06T00:33:14.792Z,8.34
2022-11-06T00:34:14.785Z,8.36
2022-11-06T00:35:14.761Z,8.42
2022-11-06T00:36:14.761Z,8.34
2022-11-06T00:37:14.759Z,8.30
2022-11-06T00:38:15.111Z,8.31
2022-11-06T00:39:14.726Z,8.24
2022-11-06T00:40:14.792Z,8.30
2022-11-06T00:41:15.601Z,8.31
2022-11-06T00:42:14.695Z,8.41
2022-11-06T00:43:14.704Z,8.44
2022-11-06T00:44:14.671Z,8.42
2022-11-06T00:45:14.658Z,8.41
2022-11-06T00:46:14.651Z,8.45
2022-11-06T00:47:14.640Z,8.46
2022-11-06T00:48:15.109Z,8.44
2022-11-06T00:49:14.631Z,8.44
2022-11-06T00:50:14.609Z,8.42
2022-11-06T00:51:14.600Z,8.34
2022-11-06T00:52:14.583Z,8.23
2022-11-06T00:53:14.642Z,8.26
2022-11-06T00:54:14.588Z,8.26
2022-11-06T00:55:14.556Z,8.15
2022-11-06T00:56:14.592Z,8.18
2022-11-06T00:57:14.536Z,8.19
2022-11-06T00:58:14.875Z,8.15
2022-11-06T00:59:14.509Z,8.15
2022-11-06T01:00:14.520Z,8.06
2022-11-06T01:01:14.636Z,8.09
2022-11-06T01:02:14.623Z,8.06
2022-11-06T01:03:14.468Z,8.10
2022-11-06T01:04:14.459Z,8.16
2022-11-06T01:05:14.503Z,8.15
2022-11-06T01:06:14.436Z,8.19
2022-11-06T01:07:14.423Z,8.16
2022-11-06T01:08:14.724Z,8.15
2022-11-06T01:09:14.404Z,8.20
2022-11-06T01:10:14.431Z,8.10
2022-11-06T01:11:14.425Z,8.15
2022-11-06T01:12:14.864Z,8.19
2022-11-06T01:13:14.355Z,8.20
2022-11-06T01:14:14.340Z,8.28
2022-11-06T01:15:14.330Z,8.27
2022-11-06T01:16:14.318Z,8.27
2022-11-06T01:17:14.383Z,8.27
2022-11-06T01:18:14.662Z,8.27
2022-11-06T01:19:14.292Z,8.27
2022-11-06T01:20:14.279Z,8.16
2022-11-06T01:21:14.269Z,8.24
2022-11-06T01:22:14.256Z,8.23
2022-11-06T01:23:14.262Z,8.13
2022-11-06T01:24:14.310Z,8.16
2022-11-06T01:25:14.221Z,8.12
2022-11-06T01:26:14.212Z,8.08
2022-11-06T01:27:29.529Z,8.05
2022-11-06T01:28:15.465Z,8.16
2022-11-06T01:29:14.203Z,8.13
2022-11-06T01:30:14.178Z,8.13
2022-11-06T01:31:14.154Z,8.13
2022-11-06T01:32:14.143Z,8.10
2022-11-06T01:33:14.136Z,8.05
2022-11-06T01:34:14.142Z,8.06
2022-11-06T01:35:14.123Z,8.06
2022-11-06T01:36:14.095Z,8.12
2022-11-06T01:37:14.936Z,8.03
2022-11-06T01:38:14.442Z,8.06
2022-11-06T01:39:14.060Z,8.16
2022-11-06T01:40:14.086Z,8.13
2022-11-06T01:41:14.050Z,8.05
2022-11-06T01:42:14.039Z,8.13
2022-11-06T01:43:14.045Z,8.03
2022-11-06T01:44:14.125Z,8.08
2022-11-06T01:45:14.013Z,8.00
2022-11-06T01:46:14.021Z,8.06
2022-11-06T01:47:13.987Z,8.05
2022-11-06T01:48:14.337Z,8.01
2022-11-06T01:49:13.964Z,8.00
2022-11-06T01:50:13.963Z,8.06
2022-11-06T01:51:13.961Z,8.08
2022-11-06T01:52:13.948Z,8.05
2022-11-06T01:53:13.917Z,8.06
2022-11-06T01:54:13.909Z,7.95
2022-11-06T01:55:13.893Z,8.00
2022-11-06T01:56:13.905Z,7.98
2022-11-06T01:57:13.922Z,8.03
2022-11-06T01:58:14.265Z,8.06
2022-11-06T01:59:13.855Z,8.03
2022-11-06T02:00:13.941Z,8.18
2022-11-06T02:01:13.850Z,8.15
2022-11-06T02:02:13.939Z,8.15
2022-11-06T02:03:13.866Z,8.12
2022-11-06T02:04:13.800Z,8.12
2022-11-06T02:05:13.792Z,8.12
2022-11-06T02:06:13.769Z,8.12
2022-11-06T02:07:13.768Z,8.06
2022-11-06T02:08:14.091Z,8.15
2022-11-06T02:09:13.745Z,8.13
2022-11-06T02:10:13.732Z,8.08
2022-11-06T02:11:13.710Z,8.18
2022-11-06T02:12:13.711Z,8.16
2022-11-06T02:13:13.702Z,8.18
2022-11-06T02:14:13.711Z,8.12
2022-11-06T02:15:13.699Z,8.18
2022-11-06T02:16:13.680Z,8.01
2022-11-06T02:17:13.648Z,8.01
2022-11-06T02:18:13.935Z,8.00
2022-11-06T02:19:13.649Z,8.06
2022-11-06T02:20:13.625Z,8.09
2022-11-06T02:21:13.613Z,8.06
2022-11-06T02:22:13.602Z,8.03
2022-11-06T02:23:13.580Z,8.13
2022-11-06T02:24:13.574Z,8.03
2022-11-06T02:25:13.589Z,8.03
2022-11-06T02:26:13.555Z,8.08
2022-11-06T02:27:13.546Z,8.05
2022-11-06T02:28:13.827Z,8.12
2022-11-06T02:29:13.515Z,8.08
2022-11-06T02:30:13.512Z,7.98
2022-11-06T02:31:13.513Z,8.01
2022-11-06T02:32:13.516Z,8.03
2022-11-06T02:33:13.507Z,8.00
2022-11-06T02:34:13.468Z,8.03
2022-11-06T02:35:13.452Z,8.06
2022-11-06T02:36:13.445Z,8.06
2022-11-06T02:37:13.445Z,8.05
2022-11-06T02:38:13.783Z,8.08
2022-11-06T02:39:13.430Z,8.10
2022-11-06T02:40:13.403Z,8.09
2022-11-06T02:41:13.384Z,8.13
2022-11-06T02:42:13.383Z,8.13
2022-11-06T02:43:13.369Z,8.16
2022-11-06T02:44:13.370Z,8.10
2022-11-06T02:45:13.342Z,8.10
2022-11-06T02:46:13.325Z,8.10
2022-11-06T02:47:13.334Z,8.13
2022-11-06T02:48:13.665Z,8.13
2022-11-06T02:49:13.319Z,8.13
2022-11-06T02:50:13.298Z,8.10
2022-11-06T02:51:13.280Z,8.23
2022-11-06T02:52:13.265Z,8.16
2022-11-06T02:53:13.254Z,8.13
2022-11-06T02:54:13.250Z,8.20
2022-11-06T02:55:13.258Z,8.15
2022-11-06T02:56:13.224Z,8.18
2022-11-06T02:57:13.217Z,8.16
2022-11-06T02:58:13.512Z,8.13
2022-11-06T02:59:13.183Z,8.13
2022-11-06T03:00:13.236Z,8.10
2022-11-06T03:01:13.163Z,8.13
2022-11-06T03:02:13.332Z,8.10
2022-11-06T03:03:13.144Z,8.15
2022-11-06T03:04:13.149Z,8.05
2022-11-06T03:05:13.137Z,8.10
2022-11-06T03:06:13.121Z,8.03
2022-11-06T03:07:13.118Z,8.08
2022-11-06T03:08:13.362Z,8.00
2022-11-06T03:09:13.079Z,8.01
2022-11-06T03:10:13.081Z,8.05
2022-11-06T03:11:13.101Z,7.98
2022-11-06T03:12:13.054Z,7.95
2022-11-06T03:13:13.032Z,8.01
2022-11-06T03:14:13.027Z,7.95
2022-11-06T03:15:13.012Z,7.97
2022-11-06T03:16:13.017Z,7.95
2022-11-06T03:17:13.081Z,7.98
2022-11-06T03:18:13.358Z,7.95
2022-11-06T03:19:12.977Z,7.93
2022-11-06T03:20:12.974Z,7.95
2022-11-06T03:21:12.959Z,8.01
2022-11-06T03:22:12.948Z,8.03
2022-11-06T03:23:12.919Z,7.94
2022-11-06T03:24:12.915Z,7.88
2022-11-06T03:25:12.911Z,7.90
2022-11-06T03:26:12.900Z,7.90
2022-11-06T03:27:12.900Z,7.80
2022-11-06T03:28:13.124Z,7.82
2022-11-06T03:29:12.858Z,7.69
2022-11-06T03:30:16.458Z,7.83
2022-11-06T03:31:12.843Z,7.82
2022-11-06T03:32:12.851Z,7.77
2022-11-06T03:33:12.828Z,7.80
2022-11-06T03:34:12.811Z,7.79
2022-11-06T03:35:12.797Z,7.80
2022-11-06T03:36:12.797Z,7.72
2022-11-06T03:37:12.784Z,7.76
2022-11-06T03:38:13.172Z,7.77
2022-11-06T03:39:12.800Z,7.72
2022-11-06T03:40:12.750Z,7.77
2022-11-06T03:41:12.727Z,7.82
2022-11-06T03:42:12.727Z,7.83
2022-11-06T03:43:12.708Z,7.90
2022-11-06T03:44:12.709Z,7.87
2022-11-06T03:45:12.682Z,7.94
2022-11-06T03:46:12.685Z,7.95
2022-11-06T03:47:12.659Z,7.97
2022-11-06T03:48:12.895Z,7.94
2022-11-06T03:49:12.661Z,7.98
2022-11-06T03:50:12.650Z,8.00
2022-11-06T03:51:12.624Z,7.97
2022-11-06T03:52:12.623Z,7.94
2022-11-06T03:53:12.600Z,7.97
2022-11-06T03:54:12.604Z,7.94
2022-11-06T03:55:12.601Z,7.97
2022-11-06T03:56:12.560Z,7.95
2022-11-06T03:57:12.542Z,7.79
2022-11-06T03:58:12.913Z,7.79
2022-11-06T03:59:12.608Z,7.73
2022-11-06T04:00:12.529Z,7.72
2022-11-06T04:01:12.514Z,7.73
2022-11-06T04:02:12.657Z,7.77
2022-11-06T04:03:12.503Z,7.69
2022-11-06T04:04:12.463Z,7.80
2022-11-06T04:05:12.469Z,7.77
2022-11-06T04:06:12.455Z,7.79
2022-11-06T04:07:12.444Z,7.66
2022-11-06T04:08:12.788Z,7.77
2022-11-06T04:09:12.441Z,7.77
2022-11-06T04:10:12.446Z,7.72
2022-11-06T04:11:12.478Z,7.77
2022-11-06T04:12:12.388Z,7.70
2022-11-06T04:13:12.383Z,7.72
2022-11-06T04:14:12.375Z,7.72
2022-11-06T04:15:12.428Z,7.73
2022-11-06T04:16:12.361Z,7.70
2022-11-06T04:17:12.325Z,7.70
2022-11-06T04:18:12.566Z,7.73
2022-11-06T04:19:12.314Z,7.70
2022-11-06T04:20:12.313Z,7.79
2022-11-06T04:21:12.292Z,7.66
2022-11-06T04:22:12.265Z,7.61
2022-11-06T04:23:12.275Z,7.63
2022-11-06T04:24:12.263Z,7.61
2022-11-06T04:25:12.247Z,7.61
2022-11-06T04:26:12.249Z,7.60
2022-11-06T04:27:12.219Z,7.58
2022-11-06T04:28:12.604Z,7.53
2022-11-06T04:29:12.198Z,7.58
2022-11-06T04:30:12.194Z,7.51
2022-11-06T04:31:12.208Z,7.56
2022-11-06T04:32:12.179Z,7.60
2022-11-06T04:33:12.156Z,7.57
2022-11-06T04:34:12.140Z,7.63
2022-11-06T04:35:12.141Z,7.56
2022-11-06T04:36:12.121Z,7.66
2022-11-06T04:37:12.117Z,7.58
2022-11-06T04:38:12.500Z,7.66
2022-11-06T04:39:12.097Z,7.66
2022-11-06T04:40:12.093Z,7.51
2022-11-06T04:41:12.086Z,7.53
2022-11-06T04:42:12.084Z,7.56
2022-11-06T04:43:12.054Z,7.61
2022-11-06T04:44:12.045Z,7.58
2022-11-06T04:45:12.029Z,7.57
2022-11-06T04:46:12.019Z,7.63
2022-11-06T04:47:12.000Z,7.54
2022-11-06T04:48:12.473Z,7.53
2022-11-06T04:49:11.991Z,7.39
2022-11-06T04:50:11.979Z,7.43
2022-11-06T04:51:11.967Z,7.42
2022-11-06T04:52:11.966Z,7.36
2022-11-06T04:53:11.944Z,7.39
2022-11-06T04:54:11.941Z,7.38
2022-11-06T04:55:11.934Z,7.42
2022-11-06T04:56:11.939Z,7.31
2022-11-06T04:57:11.898Z,7.33
2022-11-06T04:58:12.169Z,7.35
2022-11-06T04:59:11.869Z,7.31
2022-11-06T05:00:11.866Z,7.36
2022-11-06T05:01:11.934Z,7.40
2022-11-06T05:02:11.936Z,7.42
2022-11-06T05:03:11.829Z,7.38
2022-11-06T05:04:11.850Z,7.33
2022-11-06T05:05:11.807Z,7.39
2022-11-06T05:06:11.800Z,7.38
2022-11-06T05:07:11.874Z,7.39
2022-11-06T05:08:12.230Z,7.39
2022-11-06T05:09:11.771Z,7.33
2022-11-06T05:10:11.759Z,7.38
2022-11-06T05:11:11.758Z,7.35
2022-11-06T05:12:11.756Z,7.32
2022-11-06T05:13:11.891Z,7.35
2022-11-06T05:14:11.720Z,7.32
2022-11-06T05:15:11.702Z,7.31
2022-11-06T05:16:11.691Z,7.31
2022-11-06T05:17:11.689Z,7.29
2022-11-06T05:18:12.010Z,7.35
2022-11-06T05:19:11.846Z,7.28
2022-11-06T05:20:11.674Z,7.32
2022-11-06T05:21:11.652Z,7.39
2022-11-06T05:22:11.902Z,7.33
2022-11-06T05:23:11.602Z,7.43
2022-11-06T05:24:11.597Z,7.38
2022-11-06T05:25:11.593Z,7.47
2022-11-06T05:26:11.593Z,7.38
2022-11-06T05:27:11.580Z,7.50
2022-11-06T05:28:11.990Z,7.51
2022-11-06T05:29:11.540Z,7.54
2022-11-06T05:30:11.537Z,7.50
2022-11-06T05:31:11.541Z,7.47
2022-11-06T05:32:11.512Z,7.48
2022-11-06T05:33:11.495Z,7.43
2022-11-06T05:34:11.532Z,7.35
2022-11-06T05:35:11.492Z,7.33
2022-11-06T05:36:11.484Z,7.39
2022-11-06T05:37:11.478Z,7.32
2022-11-06T05:38:11.866Z,7.39
2022-11-06T05:39:11.449Z,7.40
2022-11-06T05:40:11.426Z,7.58
2022-11-06T05:41:11.419Z,7.67
2022-11-06T05:42:11.450Z,7.80
2022-11-06T05:43:11.395Z,7.82
2022-11-06T05:44:11.406Z,7.85
2022-11-06T05:45:11.376Z,7.85
2022-11-06T05:46:29.639Z,7.85
2022-11-06T05:47:12.373Z,7.83
2022-11-06T05:48:11.724Z,7.73
2022-11-06T05:49:11.345Z,7.66
2022-11-06T05:50:11.328Z,7.61
2022-11-06T05:51:11.316Z,7.45
2022-11-06T05:52:11.316Z,7.40
2022-11-06T05:53:11.311Z,7.45
2022-11-06T05:54:11.291Z,7.38
2022-11-06T05:55:14.804Z,7.47
2022-11-06T05:56:11.257Z,7.47
2022-11-06T05:57:11.254Z,7.40
2022-11-06T05:58:11.625Z,7.40
2022-11-06T05:59:11.225Z,7.39
2022-11-06T06:00:11.235Z,7.40
2022-11-06T06:01:11.215Z,7.29
2022-11-06T06:02:11.323Z,7.28
2022-11-06T06:03:11.244Z,7.35
2022-11-06T06:04:11.164Z,7.29
2022-11-06T06:05:11.162Z,7.36
2022-11-06T06:06:11.143Z,7.38
2022-11-06T06:07:11.156Z,7.39
2022-11-06T06:08:11.426Z,7.40
2022-11-06T06:09:11.134Z,7.47
2022-11-06T06:10:11.107Z,7.50
2022-11-06T06:11:11.114Z,7.53
2022-11-06T06:12:11.087Z,7.57
2022-11-06T06:13:11.082Z,7.54
2022-11-06T06:14:11.067Z,7.54
2022-11-06T06:15:11.058Z,7.54
2022-11-06T06:16:11.142Z,7.56
2022-11-06T06:17:11.047Z,7.48
2022-11-06T06:18:11.395Z,7.57
2022-11-06T06:19:11.005Z,7.54
2022-11-06T06:20:10.994Z,7.43
2022-11-06T06:21:10.991Z,7.50
2022-11-06T06:22:10.969Z,7.39
2022-11-06T06:23:10.967Z,7.39
2022-11-06T06:24:11.030Z,7.40
2022-11-06T06:25:21.394Z,7.50
2022-11-06T06:26:11.951Z,7.47
2022-11-06T06:27:10.927Z,7.36
2022-11-06T06:28:11.202Z,7.40
2022-11-06T06:29:10.901Z,7.36
2022-11-06T06:30:10.888Z,7.40
2022-11-06T06:31:10.906Z,7.45
2022-11-06T06:32:11.006Z,7.39
2022-11-06T06:33:10.853Z,7.40
2022-11-06T06:34:10.850Z,7.39
2022-11-06T06:35:10.845Z,7.43
2022-11-06T06:36:10.846Z,7.42
2022-11-06T06:37:10.815Z,7.39
2022-11-06T06:38:11.119Z,7.39
2022-11-06T06:39:10.796Z,7.38
2022-11-06T06:40:10.787Z,7.35
2022-11-06T06:41:10.767Z,7.29
2022-11-06T06:42:10.757Z,7.28
2022-11-06T06:43:10.753Z,7.40
2022-11-06T06:44:10.748Z,7.40
2022-11-06T06:45:10.725Z,7.43
2022-11-06T06:46:10.719Z,7.25
2022-11-06T06:47:10.724Z,7.31
2022-11-06T06:48:11.123Z,7.29
2022-11-06T06:49:10.685Z,7.38
2022-11-06T06:50:10.679Z,7.36
2022-11-06T06:51:10.660Z,7.28
2022-11-06T06:52:10.648Z,7.31
2022-11-06T06:53:10.645Z,7.29
2022-11-06T06:54:10.633Z,7.29
2022-11-06T06:55:10.620Z,7.35
2022-11-06T06:56:10.606Z,7.25
2022-11-06T06:57:10.601Z,7.32
2022-11-06T06:58:16.563Z,7.32
2022-11-06T06:59:11.605Z,7.33
2022-11-06T07:00:10.565Z,7.35
2022-11-06T07:01:10.687Z,7.40
2022-11-06T07:02:10.626Z,7.40
2022-11-06T07:03:10.549Z,7.36
2022-11-06T07:04:10.630Z,7.39
2022-11-06T07:05:10.519Z,7.42
2022-11-06T07:06:10.499Z,7.38
2022-11-06T07:07:10.489Z,7.43
2022-11-06T07:08:10.717Z,7.47
2022-11-06T07:09:10.493Z,7.43
2022-11-06T07:10:10.458Z,7.53
2022-11-06T07:11:10.454Z,7.58
2022-11-06T07:12:10.432Z,7.58
2022-11-06T07:13:10.769Z,7.61
2022-11-06T07:14:10.413Z,7.60
2022-11-06T07:15:10.427Z,7.63
2022-11-06T07:16:10.392Z,7.73
2022-11-06T07:17:10.377Z,7.79
2022-11-06T07:18:10.488Z,7.91
2022-11-06T07:19:10.365Z,7.91
2022-11-06T07:20:10.393Z,7.97
2022-11-06T07:21:10.344Z,8.09
2022-11-06T07:22:10.331Z,8.10
2022-11-06T07:23:10.316Z,8.23
2022-11-06T07:24:10.330Z,8.10
2022-11-06T07:25:10.300Z,8.08
2022-11-06T07:26:10.301Z,8.09
2022-11-06T07:27:10.281Z,8.19
2022-11-06T07:28:10.265Z,8.15
2022-11-06T07:29:10.249Z,8.15
2022-11-06T07:30:10.245Z,8.16
2022-11-06T07:31:10.240Z,8.05
2022-11-06T07:32:10.219Z,8.19
2022-11-06T07:33:10.208Z,8.12
2022-11-06T07:34:10.194Z,8.10
2022-11-06T07:35:10.191Z,8.15
2022-11-06T07:36:10.200Z,8.10
2022-11-06T07:37:10.181Z,8.13
2022-11-06T07:38:10.315Z,8.15
2022-11-06T07:39:10.155Z,8.15
2022-11-06T07:40:10.126Z,8.12
2022-11-06T07:41:10.120Z,8.16
2022-11-06T07:42:10.166Z,8.15
2022-11-06T07:43:10.108Z,8.12
2022-11-06T07:44:10.084Z,8.24
2022-11-06T07:45:10.076Z,8.26
2022-11-06T07:46:10.068Z,8.19
2022-11-06T07:47:10.048Z,8.19
2022-11-06T07:48:10.049Z,8.18
2022-11-06T07:49:10.032Z,8.28
2022-11-06T07:50:10.014Z,8.27
2022-11-06T07:51:10.039Z,8.36
2022-11-06T07:52:10.044Z,8.37
2022-11-06T07:53:10.140Z,8.48
2022-11-06T07:54:09.972Z,8.46
2022-11-06T07:55:09.969Z,8.44
2022-11-06T07:56:09.955Z,8.44
2022-11-06T07:57:09.957Z,8.49
2022-11-06T07:58:09.930Z,8.46
2022-11-06T07:59:09.968Z,8.53
2022-11-06T08:00:09.914Z,8.56
2022-11-06T08:01:14.098Z,8.60
2022-11-06T08:02:10.986Z,8.73
2022-11-06T08:03:09.881Z,8.76
2022-11-06T08:04:09.872Z,8.78
2022-11-06T08:05:09.865Z,8.99
2022-11-06T08:06:09.844Z,9.06
2022-11-06T08:07:09.830Z,9.16
2022-11-06T08:08:09.845Z,9.28
2022-11-06T08:09:09.807Z,9.44
2022-11-06T08:10:09.819Z,9.66
2022-11-06T08:11:09.784Z,10.23
2022-11-06T08:12:09.774Z,11.29
2022-11-06T08:13:09.767Z,12.27
2022-11-06T08:14:09.752Z,13.18
2022-11-06T08:15:09.757Z,14.00
2022-11-06T08:16:09.731Z,14.85
2022-11-06T08:17:09.717Z,15.64
2022-11-06T08:18:09.723Z,16.16
2022-11-06T08:19:09.711Z,16.31
2022-11-06T08:20:09.698Z,16.15
2022-11-06T08:21:09.683Z,15.58
2022-11-06T08:22:09.662Z,15.37
2022-11-06T08:23:09.651Z,15.24
2022-11-06T08:24:09.744Z,14.92
2022-11-06T08:25:09.645Z,15.04
2022-11-06T08:26:09.689Z,15.09
2022-11-06T08:27:09.616Z,15.22
2022-11-06T08:28:09.603Z,15.43
2022-11-06T08:29:09.594Z,15.83
2022-11-06T08:30:09.594Z,16.17
2022-11-06T08:31:09.589Z,16.86
2022-11-06T08:32:09.564Z,17.65
2022-11-06T08:33:09.573Z,18.01
2022-11-06T08:34:09.536Z,18.78
2022-11-06T08:35:09.533Z,19.21
2022-11-06T08:36:09.519Z,19.40
2022-11-06T08:37:09.515Z,19.37
2022-11-06T08:38:09.486Z,19.09
2022-11-06T08:39:09.488Z,18.84
2022-11-06T08:40:09.489Z,18.86
2022-11-06T08:41:09.464Z,18.37
2022-11-06T08:42:09.468Z,18.16
2022-11-06T08:43:09.441Z,18.04
2022-11-06T08:44:09.428Z,17.78
2022-11-06T08:45:09.419Z,17.39
2022-11-06T08:46:09.407Z,16.94
2022-11-06T08:47:09.412Z,15.98
2022-11-06T08:48:09.391Z,15.91
2022-11-06T08:49:09.375Z,15.79
2022-11-06T08:50:09.411Z,15.68
2022-11-06T08:51:09.352Z,15.36
2022-11-06T08:52:09.335Z,15.25
2022-11-06T08:53:09.377Z,15.25
2022-11-06T08:54:09.351Z,15.28
2022-11-06T08:55:09.306Z,14.96
2022-11-06T08:56:09.352Z,14.54
2022-11-06T08:57:09.288Z,14.23
2022-11-06T08:58:09.281Z,14.12
2022-11-06T08:59:09.263Z,14.10
2022-11-06T09:00:09.258Z,13.95
2022-11-06T09:01:09.307Z,13.68
2022-11-06T09:02:09.312Z,13.50
2022-11-06T09:03:09.238Z,13.25
2022-11-06T09:04:09.241Z,13.03
2022-11-06T09:05:09.221Z,12.90
2022-11-06T09:06:09.199Z,12.76
2022-11-06T09:07:09.213Z,12.57
2022-11-06T09:08:09.169Z,12.47
2022-11-06T09:09:09.199Z,12.28
2022-11-06T09:10:09.149Z,12.10
2022-11-06T09:11:09.137Z,12.02
2022-11-06T09:12:09.138Z,12.03
2022-11-06T09:13:09.118Z,11.94
2022-11-06T09:14:09.124Z,11.77
2022-11-06T09:15:09.094Z,11.65
2022-11-06T09:16:15.295Z,11.60
2022-11-06T09:17:09.074Z,11.50
2022-11-06T09:18:09.055Z,11.52
2022-11-06T09:19:09.077Z,11.54
2022-11-06T09:20:09.040Z,11.55
2022-11-06T09:21:09.060Z,11.66
2022-11-06T09:22:09.024Z,12.00
2022-11-06T09:23:09.006Z,12.21
2022-11-06T09:24:09.002Z,12.40
2022-11-06T09:25:08.975Z,12.76
2022-11-06T09:26:08.971Z,13.35
2022-11-06T09:27:08.992Z,14.20
2022-11-06T09:28:08.976Z,15.02
2022-11-06T09:29:08.964Z,15.80
2022-11-06T09:30:08.934Z,16.81
2022-11-06T09:31:08.918Z,17.64
2022-11-06T09:32:08.911Z,18.10
2022-11-06T09:33:13.343Z,17.89
2022-11-06T09:34:08.904Z,18.28
2022-11-06T09:35:08.892Z,18.01
2022-11-06T09:36:08.859Z,17.63
2022-11-06T09:37:08.852Z,17.36
2022-11-06T09:38:08.852Z,16.76
2022-11-06T09:39:08.826Z,16.38
2022-11-06T09:40:08.851Z,16.02
2022-11-06T09:41:08.800Z,15.75
2022-11-06T09:42:08.792Z,14.97
2022-11-06T09:43:08.786Z,14.79
2022-11-06T09:44:08.916Z,14.59
2022-11-06T09:45:08.787Z,14.43
2022-11-06T09:46:08.767Z,14.23
2022-11-06T09:47:08.737Z,13.83
2022-11-06T09:48:08.748Z,13.18
2022-11-06T09:49:08.713Z,12.82
2022-11-06T09:50:08.730Z,12.60
2022-11-06T09:51:08.710Z,12.24
2022-11-06T09:52:08.686Z,12.02
2022-11-06T09:53:08.679Z,11.99
2022-11-06T09:54:08.686Z,12.03
2022-11-06T09:55:08.669Z,12.10
2022-11-06T09:56:08.649Z,12.12
2022-11-06T09:57:08.622Z,12.09
2022-11-06T09:58:08.616Z,12.21
2022-11-06T09:59:08.629Z,12.12
2022-11-06T10:00:08.703Z,12.02
2022-11-06T10:01:08.642Z,12.03
2022-11-06T10:02:08.770Z,12.03
2022-11-06T10:03:08.571Z,12.10
2022-11-06T10:04:08.548Z,12.10
2022-11-06T10:05:08.546Z,12.06
2022-11-06T10:06:08.544Z,12.07
2022-11-06T10:07:08.534Z,12.12
2022-11-06T10:08:08.507Z,12.04
2022-11-06T10:09:08.503Z,12.09
2022-11-06T10:10:08.483Z,12.06
2022-11-06T10:11:08.470Z,12.18
2022-11-06T10:12:08.487Z,12.21
2022-11-06T10:13:08.455Z,12.35
2022-11-06T10:14:08.460Z,12.37
2022-11-06T10:15:08.443Z,12.27
2022-11-06T10:16:08.451Z,12.22
2022-11-06T10:17:08.408Z,12.13
2022-11-06T10:18:08.452Z,12.24
2022-11-06T10:19:08.398Z,12.25
2022-11-06T10:20:08.383Z,12.35
2022-11-06T10:21:08.373Z,12.29
2022-11-06T10:22:08.369Z,12.46
2022-11-06T10:23:08.362Z,12.54
2022-11-06T10:24:08.333Z,12.70
2022-11-06T10:25:08.322Z,12.73
2022-11-06T10:26:08.320Z,12.76
2022-11-06T10:27:08.296Z,12.60
2022-11-06T10:28:08.299Z,12.65
2022-11-06T10:29:08.287Z,12.60
2022-11-06T10:30:08.277Z,12.58
2022-11-06T10:31:08.263Z,12.55
2022-11-06T10:32:08.256Z,12.58
2022-11-06T10:33:08.237Z,12.67
2022-11-06T10:34:08.300Z,12.78
2022-11-06T10:35:08.204Z,12.83
2022-11-06T10:36:08.201Z,12.61
2022-11-06T10:37:08.200Z,12.57
2022-11-06T10:38:08.177Z,12.57
2022-11-06T10:39:08.172Z,12.57
2022-11-06T10:40:08.175Z,12.57
2022-11-06T10:41:08.147Z,12.35
2022-11-06T10:42:08.141Z,12.31
2022-11-06T10:43:08.134Z,12.32
2022-11-06T10:44:08.146Z,12.45
2022-11-06T10:45:08.105Z,12.40
2022-11-06T10:46:08.091Z,12.55
2022-11-06T10:47:08.085Z,12.68
2022-11-06T10:48:08.183Z,12.68
2022-11-06T10:49:08.099Z,12.60
2022-11-06T10:50:08.094Z,12.37
2022-11-06T10:51:08.058Z,12.35
2022-11-06T10:52:08.072Z,12.36
2022-11-06T10:53:08.036Z,12.37
2022-11-06T10:54:08.036Z,12.32
2022-11-06T10:55:08.004Z,12.32
2022-11-06T10:56:11.037Z,12.31
2022-11-06T10:57:07.969Z,12.37
2022-11-06T10:58:07.963Z,12.29
2022-11-06T10:59:07.947Z,12.20
2022-11-06T11:00:07.964Z,12.28
2022-11-06T11:01:07.994Z,12.29
2022-11-06T11:02:08.085Z,12.37
2022-11-06T11:03:07.908Z,12.43
2022-11-06T11:04:07.912Z,12.50
2022-11-06T11:05:07.904Z,12.43
2022-11-06T11:06:07.879Z,12.31
2022-11-06T11:07:07.865Z,12.35
2022-11-06T11:08:07.858Z,12.25
2022-11-06T11:09:07.842Z,12.17
2022-11-06T11:10:07.826Z,12.12
2022-11-06T11:11:07.822Z,12.17
2022-11-06T11:12:07.818Z,12.12
2022-11-06T11:13:09.018Z,12.20
2022-11-06T11:14:07.789Z,12.17
2022-11-06T11:15:07.767Z,12.12
2022-11-06T11:16:07.777Z,12.09
2022-11-06T11:17:07.756Z,12.10
2022-11-06T11:18:07.769Z,12.18
2022-11-06T11:19:07.725Z,12.21
2022-11-06T11:20:07.736Z,12.27
2022-11-06T11:21:07.713Z,12.32
2022-11-06T11:22:07.752Z,12.37
2022-11-06T11:23:07.769Z,12.36
2022-11-06T11:24:07.681Z,12.36
2022-11-06T11:25:07.663Z,12.47
2022-11-06T11:26:07.655Z,12.40
2022-11-06T11:27:07.648Z,12.53
2022-11-06T11:28:07.636Z,12.55
2022-11-06T11:29:07.648Z,12.50
2022-11-06T11:30:07.630Z,12.54
2022-11-06T11:31:07.601Z,12.55
2022-11-06T11:32:07.588Z,12.53
2022-11-06T11:33:07.593Z,12.49
2022-11-06T11:34:07.567Z,12.35
2022-11-06T11:35:07.575Z,12.31
2022-11-06T11:36:07.557Z,12.31
2022-11-06T11:37:07.539Z,12.27
2022-11-06T11:38:07.520Z,12.40
2022-11-06T11:39:07.517Z,12.45
2022-11-06T11:40:12.535Z,12.46
2022-11-06T11:41:07.499Z,12.54
2022-11-06T11:42:07.468Z,12.57
2022-11-06T11:43:07.508Z,12.65
2022-11-06T11:44:07.449Z,12.85
2022-11-06T11:45:07.450Z,12.85
2022-11-06T11:46:07.456Z,12.86
2022-11-06T11:47:09.281Z,12.87
2022-11-06T11:48:07.412Z,12.90
2022-11-06T11:49:07.421Z,12.86
2022-11-06T11:50:07.383Z,12.87
2022-11-06T11:51:07.485Z,12.82
2022-11-06T11:52:07.389Z,12.85
2022-11-06T11:53:10.472Z,12.78
2022-11-06T11:54:07.340Z,12.85
2022-11-06T11:55:07.334Z,12.68
2022-11-06T11:56:07.333Z,12.75
2022-11-06T11:57:07.763Z,12.64
2022-11-06T11:58:07.300Z,12.79
2022-11-06T11:59:07.287Z,12.70
2022-11-06T12:00:07.303Z,12.83
2022-11-06T12:01:07.281Z,12.91
2022-11-06T12:02:07.403Z,12.83
2022-11-06T12:03:07.309Z,12.91
2022-11-06T12:04:07.241Z,12.90
2022-11-06T12:05:07.227Z,12.91
2022-11-06T12:06:07.219Z,12.95
2022-11-06T12:07:07.200Z,12.95
2022-11-06T12:08:07.201Z,12.91
2022-11-06T12:09:07.200Z,13.01
2022-11-06T12:10:07.164Z,13.04
2022-11-06T12:11:07.199Z,13.16
2022-11-06T12:12:07.140Z,13.16
2022-11-06T12:13:07.159Z,13.16
2022-11-06T12:14:07.116Z,13.19
2022-11-06T12:15:07.145Z,13.13
2022-11-06T12:16:07.124Z,13.11
2022-11-06T12:17:07.101Z,13.18
2022-11-06T12:18:07.093Z,13.22
2022-11-06T12:19:07.073Z,13.19
2022-11-06T12:20:07.066Z,13.23
2022-11-06T12:21:07.054Z,13.30
2022-11-06T12:22:07.034Z,13.31
2022-11-06T12:23:07.056Z,13.38
2022-11-06T12:24:07.126Z,13.52
2022-11-06T12:25:07.005Z,13.54
2022-11-06T12:26:07.014Z,13.50
2022-11-06T12:27:06.976Z,13.50
2022-11-06T12:28:07.000Z,13.52
2022-11-06T12:29:06.953Z,13.35
2022-11-06T12:30:06.967Z,13.41
2022-11-06T12:31:06.938Z,13.44
2022-11-06T12:32:06.920Z,13.44
2022-11-06T12:33:06.944Z,13.47
2022-11-06T12:34:08.423Z,13.56
2022-11-06T12:35:06.887Z,13.57
2022-11-06T12:36:06.884Z,13.53
2022-11-06T12:37:06.874Z,13.57
2022-11-06T12:38:06.877Z,13.54
2022-11-06T12:39:06.866Z,13.50
2022-11-06T12:40:06.848Z,13.42
2022-11-06T12:41:06.825Z,13.28
2022-11-06T12:42:06.813Z,13.22
2022-11-06T12:43:06.801Z,13.23
2022-11-06T12:44:06.789Z,13.20
2022-11-06T12:45:06.797Z,13.12
2022-11-06T12:46:06.773Z,13.11
2022-11-06T12:47:06.762Z,13.19
2022-11-06T12:48:06.755Z,13.15
2022-11-06T12:49:06.793Z,13.08
2022-11-06T12:50:06.771Z,13.22
2022-11-06T12:51:06.738Z,13.22
2022-11-06T12:52:06.714Z,13.19
2022-11-06T12:53:06.780Z,13.13
2022-11-06T12:54:06.685Z,13.22
2022-11-06T12:55:06.718Z,13.27
2022-11-06T12:56:06.694Z,13.27
2022-11-06T12:57:06.656Z,13.33
2022-11-06T12:58:06.645Z,13.37
2022-11-06T12:59:06.650Z,13.22
2022-11-06T13:00:06.614Z,13.25
2022-11-06T13:01:06.684Z,13.22
2022-11-06T13:02:06.705Z,13.22
2022-11-06T13:03:06.586Z,13.20
2022-11-06T13:04:06.579Z,13.25
2022-11-06T13:05:06.571Z,13.22
2022-11-06T13:06:11.939Z,13.23
2022-11-06T13:07:07.542Z,13.28
2022-11-06T13:08:06.537Z,13.37